Time;durP1;ratioP1;P1;durP2;ratioP2;P2;SDS_P1;SDS_P2;PMS_P1;PMS_P2;Temp;Humidity;BMP_temperature;BMP_pressure;BME280_temperature;BME280_humidity;BME280_pressure;Samples;Min_cycle;Max_cycle;Signal;HPM_P1;HPM_P2
2024/03/31 00:00:43;;;;;;;15.23;5.35;;;4.80;99.90;;;;;;5075481;28;20028;-92
2024/03/31 00:03:09;;;;;;;10.38;4.07;;;4.80;99.90;;;;;;5078348;28;20070;-90
2024/03/31 00:05:35;;;;;;;12.98;4.40;;;4.70;99.90;;;;;;5085450;28;20110;-92
2024/03/31 00:08:00;;;;;;;16.17;4.32;;;4.70;99.90;;;;;;5097056;28;20035;-91
2024/03/31 00:10:26;;;;;;;9.52;3.72;;;4.60;99.90;;;;;;5076900;28;20044;-91
2024/03/31 00:12:52;;;;;;;8.60;3.75;;;4.60;99.90;;;;;;5077313;28;20483;-91
2024/03/31 00:15:17;;;;;;;8.57;3.72;;;4.60;99.90;;;;;;5078246;28;20020;-92
2024/03/31 00:17:43;;;;;;;11.30;3.50;;;4.60;99.90;;;;;;5077571;28;20115;-90
2024/03/31 00:20:09;;;;;;;11.77;4.10;;;4.50;99.90;;;;;;5077813;28;20024;-91
2024/03/31 00:22:35;;;;;;;13.55;4.30;;;4.50;99.90;;;;;;5077354;28;20038;-90
2024/03/31 00:25:00;;;;;;;11.32;3.70;;;4.50;99.90;;;;;;5077733;28;20020;-90
2024/03/31 00:27:26;;;;;;;9.75;3.70;;;4.50;99.90;;;;;;5095764;28;20418;-91
2024/03/31 00:29:52;;;;;;;11.85;3.67;;;4.40;99.90;;;;;;5077707;28;20377;-91
2024/03/31 00:32:18;;;;;;;12.32;3.63;;;4.40;99.90;;;;;;5077501;28;20024;-91
2024/03/31 00:34:43;;;;;;;14.07;4.63;;;4.40;99.90;;;;;;5091731;28;20548;-91
2024/03/31 00:37:09;;;;;;;9.68;3.67;;;4.30;99.90;;;;;;5077612;28;20127;-92
2024/03/31 00:39:35;;;;;;;12.23;3.92;;;4.30;99.90;;;;;;5079066;28;20024;-92
2024/03/31 00:42:00;;;;;;;8.77;3.45;;;4.30;99.90;;;;;;5077513;28;20519;-91
2024/03/31 00:44:26;;;;;;;11.63;4.00;;;4.30;99.90;;;;;;5083212;28;20051;-90
2024/03/31 00:46:52;;;;;;;11.00;4.10;;;4.20;99.90;;;;;;5089668;28;20083;-91
2024/03/31 00:49:18;;;;;;;14.45;3.60;;;4.20;99.90;;;;;;5087479;28;20027;-91
2024/03/31 00:51:44;;;;;;;10.45;3.60;;;4.20;99.90;;;;;;5077403;28;20023;-91
2024/03/31 00:54:09;;;;;;;8.50;3.80;;;4.20;99.90;;;;;;5086166;28;20016;-91
2024/03/31 00:56:35;;;;;;;8.57;4.03;;;4.10;99.90;;;;;;5081261;28;20035;-93
2024/03/31 00:59:01;;;;;;;7.55;3.55;;;4.10;99.90;;;;;;5080686;28;20023;-92
2024/03/31 01:01:27;;;;;;;7.38;3.45;;;4.00;99.90;;;;;;5080808;28;20031;-91
2024/03/31 01:03:53;;;;;;;10.07;3.85;;;4.00;99.90;;;;;;5091707;28;20088;-93
2024/03/31 01:06:23;;;;;;;8.27;3.75;;;4.00;99.90;;;;;;5084848;28;20039;-92
2024/03/31 01:08:50;;;;;;;;;;;4.00;99.90;;;;;;5097812;28;20024;-92
2024/03/31 01:11:17;;;;;;;6.85;3.53;;;4.00;99.90;;;;;;5098003;28;19923;-91
2024/03/31 01:13:44;;;;;;;8.13;3.13;;;3.90;99.90;;;;;;5093366;28;20031;-91
2024/03/31 01:16:11;;;;;;;7.53;3.70;;;3.90;99.90;;;;;;5088499;28;20511;-91
2024/03/31 01:18:37;;;;;;;8.93;3.65;;;3.90;99.90;;;;;;5086895;28;20055;-90
2024/03/31 01:21:03;;;;;;;9.57;4.10;;;3.90;99.90;;;;;;5080836;28;20020;-92
2024/03/31 01:23:41;;;;;;;9.93;3.33;;;3.80;99.90;;;;;;5077392;28;20077;-91
2024/03/31 01:26:07;;;;;;;14.48;3.55;;;3.80;99.90;;;;;;5060207;28;20107;-91
2024/03/31 01:28:33;;;;;;;9.05;3.30;;;3.80;99.90;;;;;;5076756;28;20062;-92
2024/03/31 01:30:59;;;;;;;9.55;4.05;;;3.70;99.90;;;;;;5076731;28;20056;-92
2024/03/31 01:33:25;;;;;;;15.38;3.65;;;3.70;99.90;;;;;;5077216;28;20034;-92
2024/03/31 01:35:51;;;;;;;10.35;3.55;;;3.70;99.90;;;;;;5077005;28;20020;-91
2024/03/31 01:38:16;;;;;;;8.73;3.25;;;3.60;99.90;;;;;;5077074;28;20051;-91
2024/03/31 01:40:42;;;;;;;7.63;3.03;;;3.60;99.90;;;;;;5076326;28;20028;-91
2024/03/31 01:43:08;;;;;;;9.07;4.13;;;3.60;99.90;;;;;;5076102;28;20063;-90
2024/03/31 01:45:34;;;;;;;8.13;3.13;;;3.50;99.90;;;;;;5079925;28;20107;-91
2024/03/31 01:47:59;;;;;;;4.72;2.70;;;3.50;99.90;;;;;;5076720;28;20700;-91
2024/03/31 01:50:25;;;;;;;7.53;3.00;;;3.50;99.90;;;;;;5075845;28;20035;-91
2024/03/31 01:52:51;;;;;;;5.93;3.05;;;3.50;99.90;;;;;;5075604;28;20162;-92
2024/03/31 01:55:17;;;;;;;7.50;3.80;;;3.40;99.90;;;;;;5075767;28;20047;-91
2024/03/31 01:57:43;;;;;;;8.25;2.67;;;3.30;99.90;;;;;;5076066;28;20484;-91
2024/03/31 02:00:09;;;;;;;5.88;2.90;;;3.30;99.90;;;;;;5075994;28;20035;-91
2024/03/31 02:02:35;;;;;;;10.43;2.78;;;3.30;99.90;;;;;;5076181;28;20042;-90
2024/03/31 02:05:00;;;;;;;10.63;3.20;;;3.20;99.90;;;;;;5076731;28;20408;-91
2024/03/31 02:07:26;;;;;;;7.47;2.95;;;3.20;99.90;;;;;;5075330;28;20035;-90
2024/03/31 02:09:52;;;;;;;8.38;3.60;;;3.20;99.90;;;;;;5075502;28;20024;-90
2024/03/31 02:12:18;;;;;;;10.13;3.50;;;3.20;99.90;;;;;;5075165;28;20627;-91
2024/03/31 02:14:44;;;;;;;6.10;2.92;;;3.20;99.90;;;;;;5075757;28;20058;-91
2024/03/31 02:17:09;;;;;;;9.40;3.10;;;3.20;99.90;;;;;;5075924;28;20251;-91
2024/03/31 02:19:35;;;;;;;7.15;3.20;;;3.20;99.90;;;;;;5075176;28;20016;-91
2024/03/31 02:22:01;;;;;;;13.95;3.85;;;3.20;99.90;;;;;;5076338;28;20086;-91
2024/03/31 02:24:26;;;;;;;12.18;3.70;;;3.20;99.90;;;;;;5076346;28;20024;-91
2024/03/31 02:26:52;;;;;;;8.52;3.63;;;3.10;99.90;;;;;;5076222;28;20027;-90
2024/03/31 02:29:18;;;;;;;10.57;4.20;;;3.10;99.90;;;;;;5076331;28;20021;-90
2024/03/31 02:31:44;;;;;;;13.13;4.20;;;3.10;99.90;;;;;;5079595;28;20032;-90
2024/03/31 02:34:10;;;;;;;20.35;4.90;;;3.10;99.90;;;;;;5079007;28;20032;-91
2024/03/31 02:36:36;;;;;;;24.73;5.07;;;3.00;99.90;;;;;;5078024;28;20184;-90
2024/03/31 02:39:02;;;;;;;16.88;4.97;;;3.00;99.90;;;;;;5077255;28;20050;-90
2024/03/31 02:41:28;;;;;;;8.80;4.30;;;3.00;99.90;;;;;;5079250;28;20036;-90
2024/03/31 02:43:54;;;;;;;13.88;5.82;;;2.90;99.90;;;;;;5078872;28;20038;-91
2024/03/31 02:46:19;;;;;;;10.63;4.50;;;2.90;99.90;;;;;;5079981;28;20028;-91
2024/03/31 02:48:45;;;;;;;12.10;4.65;;;2.90;99.90;;;;;;5082029;28;20020;-91
2024/03/31 02:51:11;;;;;;;15.88;4.88;;;2.90;99.90;;;;;;5082836;28;20469;-89
2024/03/31 02:53:38;;;;;;;19.35;4.90;;;2.80;99.90;;;;;;5084065;28;20042;-89
2024/03/31 02:56:04;;;;;;;18.25;4.80;;;2.80;99.90;;;;;;5099793;28;20035;-91
2024/03/31 02:58:30;;;;;;;14.23;4.63;;;2.80;99.90;;;;;;5098492;28;20020;-91
2024/03/31 03:01:03;;;;;;;12.88;4.97;;;2.80;99.90;;;;;;5093282;28;20035;-91
2024/03/31 03:03:29;;;;;;;16.38;5.72;;;2.80;99.90;;;;;;5076310;28;20048;-90
2024/03/31 03:05:54;;;;;;;11.50;4.70;;;2.80;99.90;;;;;;5078191;28;20052;-89
2024/03/31 03:08:20;;;;;;;10.15;4.50;;;2.70;99.90;;;;;;5079577;28;20035;-91
2024/03/31 03:10:56;;;;;;;15.50;4.95;;;2.70;99.90;;;;;;5078622;28;20039;-90
2024/03/31 03:13:22;;;;;;;16.92;4.40;;;2.70;99.90;;;;;;5096880;28;20066;-90
2024/03/31 03:15:49;;;;;;;10.95;4.50;;;2.70;99.90;;;;;;5078462;28;20400;-91
2024/03/31 03:18:17;;;;;;;13.95;4.50;;;2.60;99.90;;;;;;5079506;28;20055;-90
2024/03/31 03:20:42;;;;;;;12.52;4.25;;;2.60;99.90;;;;;;5079425;28;20020;-89
2024/03/31 03:23:08;;;;;;;12.57;4.03;;;2.60;99.90;;;;;;5078768;28;20130;-91
2024/03/31 03:25:34;;;;;;;12.82;3.92;;;2.60;99.90;;;;;;5079104;28;20078;-89
2024/03/31 03:28:00;;;;;;;12.02;4.78;;;2.50;99.90;;;;;;5079022;28;20025;-90
2024/03/31 03:30:26;;;;;;;10.80;4.28;;;2.50;99.90;;;;;;5078570;28;20154;-90
2024/03/31 03:32:52;;;;;;;11.40;3.90;;;2.50;99.90;;;;;;5078371;28;20449;-90
2024/03/31 03:35:19;;;;;;;17.65;4.18;;;2.50;99.90;;;;;;5078254;28;20078;-90
2024/03/31 03:37:47;;;;;;;14.57;4.03;;;2.40;99.90;;;;;;5078525;28;20027;-90
2024/03/31 03:40:14;;;;;;;13.45;4.55;;;2.40;99.90;;;;;;5078559;28;20024;-90
2024/03/31 03:42:40;;;;;;;19.27;4.10;;;2.40;99.90;;;;;;5078558;28;20039;-90
2024/03/31 03:45:07;;;;;;;11.38;3.80;;;2.30;99.90;;;;;;5061945;28;20028;-90
2024/03/31 03:47:33;;;;;;;12.40;3.67;;;2.30;99.90;;;;;;5062356;28;20032;-90
2024/03/31 03:49:59;;;;;;;10.95;3.70;;;2.30;99.90;;;;;;5079173;28;20111;-90
2024/03/31 03:52:24;;;;;;;14.43;3.97;;;2.30;99.90;;;;;;5085885;28;20066;-89
2024/03/31 03:54:50;;;;;;;9.05;3.45;;;2.30;99.90;;;;;;5088095;28;20077;-91
2024/03/31 03:57:16;;;;;;;9.65;3.40;;;2.30;99.90;;;;;;5085933;28;20025;-91
2024/03/31 03:59:42;;;;;;;7.85;2.92;;;2.20;99.90;;;;;;5084554;28;20020;-91
2024/03/31 04:02:08;;;;;;;8.73;3.30;;;2.20;99.90;;;;;;5082321;28;20556;-90
2024/03/31 04:04:33;;;;;;;8.70;3.13;;;2.20;99.90;;;;;;5079433;28;20059;-90
2024/03/31 04:07:00;;;;;;;8.63;3.17;;;2.10;99.90;;;;;;5079062;28;20028;-91
2024/03/31 04:09:26;;;;;;;8.32;2.85;;;2.10;99.90;;;;;;5079109;28;20028;-89
2024/03/31 04:11:52;;;;;;;6.45;2.83;;;2.10;99.90;;;;;;5078114;28;20044;-89
2024/03/31 04:14:18;;;;;;;7.15;2.85;;;2.10;99.90;;;;;;5076893;28;20032;-90
2024/03/31 04:16:43;;;;;;;10.25;2.78;;;2.00;99.90;;;;;;5078351;28;20028;-89
2024/03/31 04:19:09;;;;;;;7.47;3.50;;;2.00;99.90;;;;;;5078396;28;20020;-89
2024/03/31 04:21:35;;;;;;;9.55;3.83;;;2.00;99.90;;;;;;5078321;28;20056;-89
2024/03/31 04:24:02;;;;;;;8.90;3.20;;;2.00;99.90;;;;;;5077230;28;20032;-89
2024/03/31 04:26:28;;;;;;;7.07;3.03;;;2.00;99.90;;;;;;5076984;28;20056;-89
2024/03/31 04:28:53;;;;;;;10.13;3.28;;;2.00;99.90;;;;;;5077224;28;20046;-89
2024/03/31 04:31:19;;;;;;;10.55;2.80;;;2.00;99.90;;;;;;5077942;28;20024;-89
2024/03/31 04:33:45;;;;;;;8.38;2.88;;;2.00;99.90;;;;;;5077369;28;20047;-90
2024/03/31 04:36:12;;;;;;;7.55;2.78;;;2.00;99.90;;;;;;5095699;28;20036;-89
2024/03/31 04:38:38;;;;;;;9.73;3.13;;;2.00;99.90;;;;;;5076632;28;20028;-89
2024/03/31 04:41:05;;;;;;;7.22;2.67;;;2.00;99.90;;;;;;5076762;28;20039;-89
2024/03/31 04:43:30;;;;;;;13.02;3.10;;;2.00;99.90;;;;;;5074521;28;20035;-89
2024/03/31 04:46:04;;;;;;;7.57;2.70;;;2.00;99.90;;;;;;5076529;28;20024;-90
2024/03/31 04:48:34;;;;;;;8.27;2.90;;;1.90;99.90;;;;;;5077297;28;20450;-90
2024/03/31 04:51:07;;;;;;;6.45;2.95;;;1.90;99.90;;;;;;5076816;28;20027;-89
2024/03/31 04:53:35;;;;;;;8.40;3.70;;;1.80;99.90;;;;;;5077016;28;20042;-89
2024/03/31 04:56:05;;;;;;;9.32;3.20;;;1.80;99.90;;;;;;5077189;28;20100;-89
2024/03/31 04:58:31;;;;;;;8.87;3.27;;;1.70;99.90;;;;;;5076990;28;20032;-89
2024/03/31 05:00:57;;;;;;;10.02;3.15;;;1.70;99.90;;;;;;5077293;28;20306;-90
2024/03/31 05:03:24;;;;;;;6.63;2.75;;;1.70;99.90;;;;;;5093819;28;20052;-89
2024/03/31 05:05:51;;;;;;;11.98;3.15;;;1.60;99.90;;;;;;5076899;28;20666;-89
2024/03/31 05:08:16;;;;;;;12.20;3.08;;;1.60;99.90;;;;;;5077354;28;20028;-90
2024/03/31 05:10:53;;;;;;;9.45;2.78;;;1.70;99.90;;;;;;5076765;28;20093;-91
2024/03/31 05:13:18;;;;;;;10.32;3.35;;;1.60;99.90;;;;;;5076596;28;20016;-90
2024/03/31 05:15:44;;;;;;;7.78;2.90;;;1.60;99.90;;;;;;5076311;28;20130;-91
2024/03/31 05:18:11;;;;;;;5.30;2.50;;;1.60;99.90;;;;;;5076514;28;20104;-90
2024/03/31 05:20:36;;;;;;;5.95;2.55;;;1.60;99.90;;;;;;5076778;28;20024;-90
2024/03/31 05:23:02;;;;;;;10.38;3.17;;;1.60;99.90;;;;;;5077102;28;20035;-90
2024/03/31 05:25:28;;;;;;;6.47;2.83;;;1.50;99.90;;;;;;5076741;28;20099;-90
2024/03/31 05:27:53;;;;;;;8.70;3.53;;;1.50;99.90;;;;;;5075334;28;20028;-90
2024/03/31 05:30:21;;;;;;;6.10;2.72;;;1.40;99.90;;;;;;5076296;28;20069;-91
2024/03/31 05:32:46;;;;;;;8.77;3.08;;;1.40;99.90;;;;;;5076685;28;20020;-89
2024/03/31 05:35:12;;;;;;;10.63;2.95;;;1.40;99.90;;;;;;5078138;28;20035;-90
2024/03/31 05:37:38;;;;;;;9.30;3.25;;;1.40;99.90;;;;;;5081118;28;20381;-90
2024/03/31 05:40:04;;;;;;;6.82;2.70;;;1.30;99.90;;;;;;5099577;28;20203;-90
2024/03/31 05:42:30;;;;;;;6.97;2.63;;;1.30;99.90;;;;;;5079683;28;20090;-90
2024/03/31 05:44:56;;;;;;;10.98;3.00;;;1.30;99.90;;;;;;5076803;28;20021;-91
2024/03/31 05:47:21;;;;;;;13.15;3.42;;;1.30;99.90;;;;;;5077136;28;20024;-90
2024/03/31 05:49:47;;;;;;;14.73;3.40;;;1.30;99.90;;;;;;5076396;28;20050;-90
2024/03/31 05:52:13;;;;;;;9.68;3.00;;;1.20;99.90;;;;;;5077028;28;20035;-90
2024/03/31 05:54:38;;;;;;;10.50;4.18;;;1.30;99.90;;;;;;5075742;28;20145;-91
2024/03/31 05:57:04;;;;;;;6.45;2.58;;;1.30;99.90;;;;;;5076937;28;20599;-91
2024/03/31 05:59:30;;;;;;;7.95;3.15;;;1.30;99.90;;;;;;5076416;28;20063;-91
2024/03/31 06:01:56;;;;;;;7.95;2.83;;;1.30;99.90;;;;;;5077467;28;20085;-92
2024/03/31 06:04:21;;;;;;;11.68;3.42;;;1.30;99.90;;;;;;5079282;28;20137;-90
2024/03/31 06:06:47;;;;;;;13.07;3.67;;;1.40;99.90;;;;;;5078523;28;20031;-91
2024/03/31 06:09:14;;;;;;;9.13;4.03;;;1.40;99.90;;;;;;5082196;28;20020;-91
2024/03/31 06:11:40;;;;;;;9.90;3.80;;;1.40;99.90;;;;;;5082032;28;20048;-92
2024/03/31 06:14:06;;;;;;;6.57;3.58;;;1.50;99.90;;;;;;5091230;28;20019;-91
2024/03/31 06:16:32;;;;;;;10.27;3.17;;;1.50;99.90;;;;;;5092634;28;20021;-92
2024/03/31 06:18:58;;;;;;;6.07;3.15;;;1.60;99.90;;;;;;5079659;28;20040;-92
2024/03/31 06:21:23;;;;;;;16.48;4.65;;;1.60;99.90;;;;;;5072763;28;20074;-92
2024/03/31 06:23:50;;;;;;;8.98;4.32;;;1.70;99.90;;;;;;5072297;28;20038;-92
2024/03/31 06:26:16;;;;;;;10.45;3.80;;;1.80;99.90;;;;;;5071719;28;20025;-92
2024/03/31 06:28:43;;;;;;;11.95;3.88;;;1.90;99.90;;;;;;5072549;28;20021;-93
2024/03/31 06:31:08;;;;;;;10.70;3.72;;;2.00;99.90;;;;;;5065953;28;20021;-93
2024/03/31 06:33:34;;;;;;;10.95;4.38;;;2.00;99.90;;;;;;5073710;28;20119;-93
2024/03/31 06:36:00;;;;;;;9.10;4.43;;;2.10;99.90;;;;;;5073458;28;20039;-93
2024/03/31 06:38:26;;;;;;;12.18;4.18;;;2.20;99.90;;;;;;5072087;28;20051;-93
2024/03/31 06:40:51;;;;;;;8.02;4.00;;;2.20;99.90;;;;;;5075783;28;20027;-93
2024/03/31 06:43:17;;;;;;;12.98;4.55;;;2.20;99.90;;;;;;5075265;28;20028;-94
2024/03/31 06:45:43;;;;;;;7.30;4.03;;;2.20;99.90;;;;;;5075186;28;20013;-94
2024/03/31 06:48:09;;;;;;;14.63;4.80;;;2.20;99.90;;;;;;5075611;28;20048;-93
2024/03/31 06:50:34;;;;;;;9.50;4.07;;;2.10;99.90;;;;;;5075716;28;20025;-93
2024/03/31 06:53:00;;;;;;;9.90;4.28;;;2.10;99.90;;;;;;5069333;28;20170;-93
2024/03/31 06:55:26;;;;;;;8.52;4.28;;;2.20;99.90;;;;;;5064521;28;20062;-93
2024/03/31 06:57:51;;;;;;;12.50;4.82;;;2.30;99.90;;;;;;5068163;28;20028;-93
2024/03/31 07:00:17;;;;;;;18.33;6.35;;;2.30;99.90;;;;;;5069800;28;20017;-93
2024/03/31 07:02:48;;;;;;;11.25;6.40;;;2.40;99.90;;;;;;5073560;28;20037;-92
2024/03/31 07:05:14;;;;;;;12.13;5.05;;;2.50;99.90;;;;;;5078820;28;20017;-93
2024/03/31 07:07:40;;;;;;;14.45;5.25;;;2.60;99.90;;;;;;5073958;28;20229;-92
2024/03/31 07:10:06;;;;;;;16.05;5.28;;;2.60;99.90;;;;;;5077118;28;20032;-92
2024/03/31 07:12:32;;;;;;;9.68;4.80;;;2.70;99.90;;;;;;5084701;28;20048;-92
2024/03/31 07:14:57;;;;;;;13.07;5.97;;;2.70;99.90;;;;;;5072671;28;20202;-90
2024/03/31 07:17:23;;;;;;;12.23;5.10;;;2.90;99.90;;;;;;5070537;28;20074;-92
2024/03/31 07:19:49;;;;;;;10.90;5.80;;;2.90;99.90;;;;;;5070956;28;20012;-92
2024/03/31 07:22:15;;;;;;;15.45;5.22;;;3.00;99.90;;;;;;5068909;28;20378;-94
2024/03/31 07:24:40;;;;;;;11.80;6.00;;;3.20;99.90;;;;;;5079783;28;20028;-92
2024/03/31 07:27:06;;;;;;;15.02;6.28;;;3.20;99.90;;;;;;5077276;28;20021;-93
2024/03/31 07:29:32;;;;;;;10.73;5.65;;;3.30;99.90;;;;;;5079067;28;20051;-91
2024/03/31 07:31:57;;;;;;;18.50;5.85;;;3.40;99.90;;;;;;5073208;28;20020;-93
2024/03/31 07:34:23;;;;;;;13.30;6.10;;;3.40;99.90;;;;;;5065794;28;20027;-92
2024/03/31 07:36:49;;;;;;;23.23;6.30;;;3.50;99.90;;;;;;5069424;28;20031;-91
2024/03/31 07:39:15;;;;;;;17.80;6.32;;;3.60;99.90;;;;;;5066282;28;20501;-92
2024/03/31 07:41:40;;;;;;;21.02;7.72;;;3.70;99.90;;;;;;5075166;28;20131;-92
2024/03/31 07:44:06;;;;;;;24.50;8.13;;;3.80;99.90;;;;;;5075300;28;20042;-92
2024/03/31 07:46:32;;;;;;;19.52;8.23;;;3.90;99.90;;;;;;5075460;28;20099;-91
2024/03/31 07:48:58;;;;;;;24.45;11.07;;;4.00;99.90;;;;;;5084001;28;20008;-93
2024/03/31 07:51:23;;;;;;;34.50;11.55;;;4.00;99.90;;;;;;5088182;28;20028;-93
2024/03/31 07:53:49;;;;;;;25.70;10.80;;;4.20;99.90;;;;;;5089307;28;20009;-90
2024/03/31 07:56:15;;;;;;;71.25;18.33;;;4.30;99.90;;;;;;5089504;28;20093;-91
2024/03/31 07:58:41;;;;;;;58.92;17.30;;;4.40;99.90;;;;;;5076733;28;20112;-90
2024/03/31 08:01:07;;;;;;;50.03;16.80;;;4.50;99.90;;;;;;5064438;28;20021;-91
2024/03/31 08:03:33;;;;;;;46.20;16.88;;;4.60;99.90;;;;;;5072922;28;20137;-91
2024/03/31 08:05:58;;;;;;;49.88;16.65;;;4.70;99.90;;;;;;5068221;28;20032;-90
2024/03/31 08:08:24;;;;;;;58.10;17.20;;;4.90;99.90;;;;;;5067255;28;20020;-90
2024/03/31 08:10:50;;;;;;;58.92;18.58;;;5.00;99.90;;;;;;5072448;28;20450;-92
2024/03/31 08:13:16;;;;;;;50.42;16.98;;;5.10;99.90;;;;;;5081057;28;20020;-91
2024/03/31 08:15:42;;;;;;;37.72;16.08;;;5.20;99.90;;;;;;5078443;28;20376;-91
2024/03/31 08:18:09;;;;;;;42.72;15.23;;;5.40;99.90;;;;;;5076889;28;20027;-91
2024/03/31 08:20:36;;;;;;;46.70;16.92;;;5.50;99.90;;;;;;5076007;28;20031;-91
2024/03/31 08:23:02;;;;;;;50.00;17.92;;;5.70;99.90;;;;;;5078359;28;20493;-92
2024/03/31 08:25:27;;;;;;;36.67;14.95;;;5.90;99.90;;;;;;5078148;28;20019;-91
2024/03/31 08:27:53;;;;;;;41.63;16.67;;;6.00;99.90;;;;;;5078042;28;20039;-91
2024/03/31 08:30:19;;;;;;;39.20;15.93;;;6.20;99.90;;;;;;5077724;28;20016;-92
2024/03/31 08:32:45;;;;;;;37.17;14.90;;;6.40;99.90;;;;;;5095520;28;20028;-92
2024/03/31 08:35:11;;;;;;;39.65;16.00;;;6.50;99.90;;;;;;5077706;28;20028;-94
2024/03/31 08:37:37;;;;;;;40.45;14.93;;;6.60;99.90;;;;;;5077917;28;20083;-93
2024/03/31 08:40:04;;;;;;;34.78;14.05;;;6.70;99.90;;;;;;5077513;28;20024;-92
2024/03/31 08:42:50;;;;;;;38.20;16.15;;;6.80;99.90;;;;;;5096928;28;20032;-92
2024/03/31 08:45:20;;;;;;;46.25;16.50;;;6.90;99.90;;;;;;5080029;28;20040;-91
2024/03/31 08:47:48;;;;;;;43.78;15.70;;;7.00;99.90;;;;;;5077333;28;20023;-93
2024/03/31 08:50:15;;;;;;;36.30;15.13;;;7.10;99.90;;;;;;5078538;28;20461;-93
2024/03/31 08:52:41;;;;;;;39.50;14.43;;;7.10;99.90;;;;;;5096697;28;20089;-94
2024/03/31 08:55:09;;;;;;;37.00;15.85;;;7.20;99.90;;;;;;5078919;28;20025;-92
2024/03/31 08:57:36;;;;;;;34.22;14.43;;;7.30;99.90;;;;;;5077606;28;20036;-93
2024/03/31 09:00:04;;;;;;;39.38;16.92;;;7.30;99.90;;;;;;5077078;28;20020;-93
2024/03/31 09:02:30;;;;;;;33.75;15.57;;;7.40;99.90;;;;;;5075776;28;20489;-94
2024/03/31 09:04:56;;;;;;;39.85;14.85;;;7.50;99.90;;;;;;5077028;28;20469;-92
2024/03/31 09:07:22;;;;;;;37.75;15.52;;;7.50;99.90;;;;;;5078082;28;20020;-92
2024/03/31 09:09:48;;;;;;;35.10;15.68;;;7.60;99.90;;;;;;5075847;28;20023;-92
2024/03/31 09:12:14;;;;;;;40.45;16.45;;;7.60;99.90;;;;;;5087068;28;20490;-93
2024/03/31 09:14:41;;;;;;;38.10;15.25;;;7.70;99.90;;;;;;5077852;28;20088;-91
2024/03/31 09:17:11;;;;;;;39.85;15.68;;;7.70;99.90;;;;;;5067421;28;20056;-91
2024/03/31 09:19:39;;;;;;;33.65;15.35;;;7.80;99.90;;;;;;5073276;28;20035;-91
2024/03/31 09:22:05;;;;;;;34.63;14.32;;;7.80;99.90;;;;;;5074053;28;20031;-91
2024/03/31 09:24:31;;;;;;;34.42;14.55;;;7.80;99.90;;;;;;5076523;28;20039;-91
2024/03/31 09:26:57;;;;;;;37.53;15.98;;;7.80;99.90;;;;;;5077300;28;20028;-92
2024/03/31 09:29:27;;;;;;;38.63;16.23;;;7.80;99.90;;;;;;5074165;28;20024;-93
2024/03/31 09:32:14;;;;;;;40.50;15.13;;;7.80;99.90;;;;;;5074768;28;20051;-91
2024/03/31 09:34:50;;;;;;;39.15;16.00;;;7.80;99.90;;;;;;5073992;28;20035;-93
2024/03/31 09:37:16;;;;;;;37.33;15.13;;;7.90;99.90;;;;;;5076393;28;20049;-92
2024/03/31 09:39:43;;;;;;;37.33;14.43;;;7.90;99.90;;;;;;5075253;28;20113;-91
2024/03/31 09:42:10;;;;;;;29.70;13.65;;;7.90;99.90;;;;;;5063313;28;20036;-91
2024/03/31 09:44:45;;;;;;;27.33;12.93;;;7.90;99.90;;;;;;5068540;28;20049;-91
2024/03/31 09:47:20;;;;;;;25.13;12.57;;;8.00;99.90;;;;;;5068313;28;20033;-91
2024/03/31 09:50:02;;;;;;;27.15;11.77;;;8.00;99.90;;;;;;5074443;28;20026;-90
2024/03/31 09:52:33;;;;;;;26.52;12.77;;;8.10;99.90;;;;;;5075511;28;20032;-90
2024/03/31 09:55:04;;;;;;;;;;;8.10;99.90;;;;;;5075435;28;20028;-90
2024/03/31 09:57:36;;;;;;;33.33;12.43;;;8.10;99.90;;;;;;5084319;28;19912;-91
2024/03/31 10:00:04;;;;;;;21.48;9.52;;;8.00;99.90;;;;;;5079290;28;20031;-90
2024/03/31 10:02:30;;;;;;;19.63;8.82;;;8.10;99.90;;;;;;5088014;28;20160;-92
2024/03/31 10:05:02;;;;;;;22.20;9.80;;;8.10;99.90;;;;;;5074874;28;20428;-91
2024/03/31 10:07:30;;;;;;;19.77;9.02;;;8.10;99.90;;;;;;5080291;28;20024;-91
2024/03/31 10:09:56;;;;;;;16.10;8.73;;;8.20;99.90;;;;;;5080216;28;20096;-92
2024/03/31 10:12:24;;;;;;;15.55;8.13;;;8.30;99.90;;;;;;5081368;28;20531;-90
2024/03/31 10:14:51;;;;;;;17.15;8.60;;;8.40;99.90;;;;;;5080933;28;20052;-91
2024/03/31 10:17:17;;;;;;;16.73;7.78;;;8.60;99.90;;;;;;5080937;28;20039;-92
2024/03/31 10:19:46;;;;;;;18.08;9.23;;;8.70;99.90;;;;;;5078948;28;20024;-91
2024/03/31 10:22:14;;;;;;;16.30;8.30;;;8.70;99.90;;;;;;5091398;28;20032;-91
2024/03/31 10:24:41;;;;;;;12.85;6.72;;;8.80;99.90;;;;;;5070777;28;20033;-92
2024/03/31 10:27:07;;;;;;;13.95;7.50;;;8.80;99.90;;;;;;5080507;28;20024;-91
2024/03/31 10:29:34;;;;;;;13.43;7.30;;;8.90;99.90;;;;;;5080555;28;20099;-91
2024/03/31 10:32:02;;;;;;;17.90;8.10;;;9.00;99.90;;;;;;5081094;28;20432;-92
2024/03/31 10:34:27;;;;;;;16.60;9.25;;;9.10;99.90;;;;;;5072351;28;20400;-93
2024/03/31 10:36:54;;;;;;;20.35;8.80;;;9.10;99.90;;;;;;5066462;28;20048;-92
2024/03/31 10:39:21;;;;;;;16.13;9.18;;;9.20;99.90;;;;;;5081377;28;20039;-93
2024/03/31 10:41:50;;;;;;;14.93;8.52;;;9.20;99.90;;;;;;5080211;28;20036;-92
2024/03/31 10:44:16;;;;;;;17.52;9.75;;;9.30;99.90;;;;;;5079491;28;20023;-92
2024/03/31 10:46:43;;;;;;;19.70;10.48;;;9.30;99.90;;;;;;5078935;28;20409;-91
2024/03/31 10:49:10;;;;;;;19.10;10.27;;;9.30;99.90;;;;;;5081861;28;20081;-92
2024/03/31 10:51:43;;;;;;;17.05;9.07;;;9.30;99.90;;;;;;5079767;28;20069;-91
2024/03/31 10:54:34;;;;;;;20.27;10.38;;;9.40;99.90;;;;;;5078321;28;20035;-93
2024/03/31 10:57:10;;;;;;;19.60;9.63;;;9.30;99.90;;;;;;5073898;28;20039;-92
2024/03/31 10:59:38;;;;;;;15.27;8.70;;;9.30;99.90;;;;;;5078971;28;20101;-91
2024/03/31 11:02:14;;;;;;;21.92;10.48;;;9.30;99.90;;;;;;5079257;28;20039;-91
2024/03/31 11:04:45;;;;;;;16.85;8.88;;;9.30;99.90;;;;;;5082588;28;20031;-91
2024/03/31 11:07:15;;;;;;;19.98;10.00;;;9.30;99.90;;;;;;5096274;28;20054;-91
2024/03/31 11:09:42;;;;;;;21.13;10.77;;;9.30;99.90;;;;;;5095671;28;20024;-92
2024/03/31 11:12:10;;;;;;;20.73;9.60;;;9.30;99.90;;;;;;5091821;28;20147;-92
2024/03/31 11:14:36;;;;;;;19.63;9.98;;;9.40;99.90;;;;;;5088113;28;20036;-91
2024/03/31 11:17:03;;;;;;;16.00;9.23;;;9.50;99.90;;;;;;5077684;28;20091;-91
2024/03/31 11:19:30;;;;;;;20.17;10.25;;;9.60;99.90;;;;;;5075331;28;20029;-93
2024/03/31 11:22:01;;;;;;;17.92;9.63;;;9.80;99.90;;;;;;5075731;28;20058;-91
2024/03/31 11:24:28;;;;;;;18.92;9.23;;;10.00;99.90;;;;;;5075876;28;20032;-92
2024/03/31 11:26:55;;;;;;;21.23;11.73;;;10.20;99.90;;;;;;5074416;28;20088;-92
2024/03/31 11:29:22;;;;;;;21.27;9.13;;;10.30;99.90;;;;;;5075887;28;20028;-91
2024/03/31 11:31:49;;;;;;;19.48;10.15;;;10.30;99.90;;;;;;5076549;28;20116;-91
2024/03/31 11:34:16;;;;;;;18.17;9.45;;;10.30;99.90;;;;;;5076902;28;20024;-93
2024/03/31 11:36:42;;;;;;;22.58;10.55;;;10.30;99.90;;;;;;5075571;28;20115;-92
2024/03/31 11:39:08;;;;;;;21.08;10.55;;;10.30;99.90;;;;;;5075339;28;20120;-93
2024/03/31 11:41:36;;;;;;;20.63;9.68;;;10.30;99.90;;;;;;5076487;28;20048;-94
2024/03/31 11:44:02;;;;;;;22.23;9.02;;;10.40;99.90;;;;;;5075769;28;20029;-92
2024/03/31 11:46:28;;;;;;;15.93;8.48;;;10.40;99.90;;;;;;5076531;28;20449;-91
2024/03/31 11:48:57;;;;;;;16.75;8.82;;;10.40;99.90;;;;;;5076370;28;20062;-91
2024/03/31 11:51:23;;;;;;;16.55;8.85;;;10.40;99.90;;;;;;5076702;28;20024;-91
2024/03/31 11:53:48;;;;;;;19.13;9.23;;;10.40;99.90;;;;;;5075751;28;20111;-91
2024/03/31 11:56:14;;;;;;;19.98;9.57;;;10.40;99.90;;;;;;5075556;28;20465;-91
2024/03/31 11:58:40;;;;;;;17.60;9.88;;;10.40;99.90;;;;;;5073541;28;20025;-91
2024/03/31 12:01:07;;;;;;;16.73;8.65;;;10.60;99.90;;;;;;5074085;28;20029;-91
2024/03/31 12:03:34;;;;;;;14.90;7.80;;;10.70;99.90;;;;;;5074208;28;20032;-93
2024/03/31 12:06:01;;;;;;;15.32;7.70;;;10.70;99.90;;;;;;5075180;28;20090;-91
2024/03/31 12:08:27;;;;;;;16.98;7.78;;;10.60;99.90;;;;;;5079096;28;20032;-91
2024/03/31 12:10:56;;;;;;;12.27;7.35;;;10.60;99.90;;;;;;5058252;28;20076;-91
2024/03/31 12:13:22;;;;;;;17.80;7.18;;;10.60;99.90;;;;;;5069198;28;20021;-92
2024/03/31 12:15:48;;;;;;;17.65;7.90;;;10.60;99.90;;;;;;5084747;28;20020;-91
2024/03/31 12:18:14;;;;;;;17.42;7.25;;;10.50;99.90;;;;;;5069397;28;20112;-91
2024/03/31 12:20:40;;;;;;;16.00;7.40;;;10.50;99.90;;;;;;5074740;28;20028;-92
2024/03/31 12:23:09;;;;;;;18.13;7.28;;;10.50;99.90;;;;;;5064228;28;20033;-93
2024/03/31 12:25:36;;;;;;;14.57;7.00;;;10.50;99.90;;;;;;5060828;28;20411;-93
2024/03/31 12:28:03;;;;;;;13.35;6.40;;;10.50;99.90;;;;;;5074991;28;20115;-92
2024/03/31 12:30:45;;;;;;;13.85;6.15;;;10.60;99.90;;;;;;5076478;28;20161;-93
2024/03/31 12:33:11;;;;;;;12.13;4.53;;;10.80;99.90;;;;;;5076315;28;20068;-90
2024/03/31 12:35:37;;;;;;;6.18;2.80;;;11.20;99.90;;;;;;5077620;28;20032;-94
2024/03/31 12:38:03;;;;;;;5.45;2.35;;;11.50;99.90;;;;;;5066889;28;20469;-93
2024/03/31 12:40:29;;;;;;;5.90;2.22;;;11.80;99.90;;;;;;5080511;28;20032;-93
2024/03/31 12:42:55;;;;;;;6.63;2.03;;;11.90;99.90;;;;;;5085496;28;20048;-93
2024/03/31 12:45:21;;;;;;;3.03;1.70;;;11.90;99.90;;;;;;5090336;28;20036;-91